Time;durP1;ratioP1;P1;durP2;ratioP2;P2;SDS_P1;SDS_P2;PMS_P1;PMS_P2;Temp;Humidity;BMP_temperature;BMP_pressure;BME280_temperature;BME280_humidity;BME280_pressure;Samples;Min_cycle;Max_cycle;Signal;HPM_P1;HPM_P2
2023/10/04 00:02:06;;;;;;;;;;;20.50;1.00;;;;;;4934416;29;19990;-55
2023/10/04 00:04:34;;;;;;;;;;;20.50;1.00;;;;;;4934747;29;20385;-54
2023/10/04 00:07:04;;;;;;;;;;;20.50;1.00;;;;;;4934734;29;19935;-52
2023/10/04 00:09:31;;;;;;;;;;;20.50;1.00;;;;;;4934686;29;19931;-50
2023/10/04 00:11:59;;;;;;;;;;;20.40;1.00;;;;;;4934231;29;19927;-54
2023/10/04 00:14:26;;;;;;;;;;;20.40;1.00;;;;;;4934767;29;19927;-51
2023/10/04 00:16:54;;;;;;;;;;;20.50;1.00;;;;;;4934799;29;19927;-50
2023/10/04 00:19:21;;;;;;;;;;;20.40;1.00;;;;;;4934650;29;20025;-50
2023/10/04 00:21:48;;;;;;;;;;;20.40;1.00;;;;;;4934617;29;20233;-53
2023/10/04 00:24:15;;;;;;;;;;;20.40;1.00;;;;;;4934600;29;19957;-53
2023/10/04 00:26:42;;;;;;;;;;;20.40;1.00;;;;;;4934704;29;20018;-53
2023/10/04 00:29:09;;;;;;;;;;;20.40;1.00;;;;;;5312846;23;19927;-53
2023/10/04 00:31:36;;;;;;;;;;;20.40;1.00;;;;;;4936371;29;19927;-54
2023/10/04 00:34:03;;;;;;;;;;;20.40;1.00;;;;;;4936009;29;19927;-52
2023/10/04 00:36:30;;;;;;;;;;;20.40;1.00;;;;;;4936624;29;19926;-50
2023/10/04 00:38:57;;;;;;;;;;;20.40;1.00;;;;;;4936304;28;19930;-50
2023/10/04 00:41:24;;;;;;;;;;;20.40;1.00;;;;;;4924782;29;20270;-52
2023/10/04 00:43:51;;;;;;;;;;;20.40;1.00;;;;;;4917561;29;20017;-53
2023/10/04 00:46:18;;;;;;;;;;;20.40;1.00;;;;;;4953655;29;19962;-50
2023/10/04 00:48:46;;;;;;;;;;;20.40;1.00;;;;;;4936224;28;19930;-52
2023/10/04 00:51:13;;;;;;;;;;;20.40;1.00;;;;;;4953227;29;19927;-51
2023/10/04 00:53:41;;;;;;;;;;;20.40;1.00;;;;;;4936713;29;20336;-52
2023/10/04 00:56:12;;;;;;;;;;;20.40;1.00;;;;;;4936226;29;19980;-53
2023/10/04 00:58:39;;;;;;;;;;;20.30;1.00;;;;;;4936486;29;19976;-53
2023/10/04 01:01:06;;;;;;;;;;;20.30;1.00;;;;;;5242807;23;19926;31
2023/10/04 01:03:37;;;;;;;;;;;20.30;1.00;;;;;;4914330;29;19928;-52
2023/10/04 01:06:04;;;;;;;;;;;20.40;1.00;;;;;;4907019;29;19934;-52
2023/10/04 01:08:33;;;;;;;;;;;20.30;1.00;;;;;;4905278;29;19927;-51
2023/10/04 01:11:00;;;;;;;;;;;20.30;1.00;;;;;;4896992;29;19955;-51
2023/10/04 01:13:29;;;;;;;;;;;20.30;1.00;;;;;;4898217;29;19927;-55
2023/10/04 01:15:57;;;;;;;;;;;20.30;1.00;;;;;;4900038;29;20030;-52
2023/10/04 01:18:25;;;;;;;;;;;20.30;1.00;;;;;;4892194;29;20026;-52
2023/10/04 01:20:52;;;;;;;;;;;20.30;1.00;;;;;;4882775;29;19927;-51
2023/10/04 01:23:19;;;;;;;;;;;20.30;1.00;;;;;;4882717;29;20354;-51
2023/10/04 01:25:46;;;;;;;;;;;20.30;1.00;;;;;;4899873;29;19983;-54
2023/10/04 01:28:26;;;;;;;;;;;20.30;1.00;;;;;;4899652;29;19927;-50
2023/10/04 01:30:54;;;;;;;;;;;20.30;1.00;;;;;;4899422;29;19975;-52
2023/10/04 01:33:25;;;;;;;;;;;20.30;1.00;;;;;;4972657;23;19935;31
2023/10/04 01:35:55;;;;;;;;;;;20.30;1.00;;;;;;4897260;29;20143;-51
2023/10/04 01:38:24;;;;;;;;;;;20.30;1.00;;;;;;4899798;29;19931;-53
2023/10/04 01:40:52;;;;;;;;;;;20.30;1.00;;;;;;4899163;29;19938;-50
2023/10/04 01:43:20;;;;;;;;;;;20.30;1.00;;;;;;4882505;29;20044;-51
2023/10/04 01:45:47;;;;;;;;;;;20.20;1.00;;;;;;4882409;29;19928;-51
2023/10/04 01:48:17;;;;;;;;;;;20.30;1.00;;;;;;4899341;29;20033;-52
2023/10/04 01:50:46;;;;;;;;;;;20.30;1.00;;;;;;4882181;29;19947;-53
2023/10/04 01:53:13;;;;;;;;;;;20.20;1.00;;;;;;4882572;29;19983;-54
2023/10/04 01:55:40;;;;;;;;;;;20.20;1.00;;;;;;4882529;29;19927;-52
2023/10/04 01:58:08;;;;;;;;;;;20.20;1.00;;;;;;4882164;29;20084;-56
2023/10/04 02:00:35;;;;;;;;;;;20.20;1.00;;;;;;4881934;29;19935;-53
2023/10/04 02:03:02;;;;;;;;;;;20.20;1.00;;;;;;4882226;29;19985;-52
2023/10/04 02:05:31;;;;;;;;;;;20.20;1.00;;;;;;4952213;23;19975;-52
2023/10/04 02:07:59;;;;;;;;;;;20.20;1.00;;;;;;4900870;29;19927;-53
2023/10/04 02:10:26;;;;;;;;;;;20.20;1.00;;;;;;4895056;29;20338;-52
2023/10/04 02:12:56;;;;;;;;;;;20.20;1.00;;;;;;4881924;29;19927;-52
2023/10/04 02:15:24;;;;;;;;;;;20.20;1.00;;;;;;4881827;29;19927;-53
2023/10/04 02:17:58;;;;;;;;;;;20.20;1.00;;;;;;4899002;29;19927;-53
2023/10/04 02:20:28;;;;;;;;;;;20.20;1.00;;;;;;4881409;29;19983;-55
2023/10/04 02:22:54;;;;;;;;;;;20.20;1.00;;;;;;4898926;29;20188;-51
2023/10/04 02:25:22;;;;;;;;;;;20.20;1.00;;;;;;4898215;29;19975;-51
2023/10/04 02:27:49;;;;;;;;;;;20.20;1.00;;;;;;4882219;29;19928;-54
2023/10/04 02:30:21;;;;;;;;;;;20.20;1.00;;;;;;4898269;29;20394;-51
2023/10/04 02:32:53;;;;;;;;;;;20.20;1.00;;;;;;4881780;29;19932;-52
2023/10/04 02:37:59;;;;;;;;;;;20.20;1.00;;;;;;4931074;29;20256;-53
2023/10/04 02:40:32;;;;;;;;;;;20.20;1.00;;;;;;4935927;29;20213;-51
2023/10/04 02:43:00;;;;;;;;;;;20.20;1.00;;;;;;4919195;29;19934;-51
2023/10/04 02:45:29;;;;;;;;;;;20.20;1.00;;;;;;4935932;29;19934;-53
2023/10/04 02:47:56;;;;;;;;;;;20.20;1.00;;;;;;4936156;29;19926;-53
2023/10/04 02:50:24;;;;;;;;;;;20.10;1.00;;;;;;4918760;29;20297;-55
2023/10/04 02:52:52;;;;;;;;;;;20.10;1.00;;;;;;4918818;29;19934;-52
2023/10/04 02:55:21;;;;;;;;;;;20.10;1.00;;;;;;4918569;29;19930;-54
2023/10/04 02:57:49;;;;;;;;;;;20.10;1.00;;;;;;4935967;29;20303;-55
2023/10/04 03:00:19;;;;;;;;;;;20.10;1.00;;;;;;4918533;29;20062;-52
2023/10/04 03:02:52;;;;;;;;;;;20.10;1.00;;;;;;4899873;29;19969;-55
2023/10/04 03:08:17;;;;;;;;;;;20.10;1.00;;;;;;5161248;23;19927;-51
2023/10/04 03:10:49;;;;;;;;;;;20.10;1.00;;;;;;4936999;29;19927;-53
2023/10/04 03:13:22;;;;;;;;;;;20.10;1.00;;;;;;4937338;29;19933;-54
2023/10/04 03:15:52;;;;;;;;;;;20.10;1.00;;;;;;4937493;29;20380;-53
2023/10/04 03:18:19;;;;;;;;;;;20.10;1.00;;;;;;4937334;29;19933;-51
2023/10/04 03:23:32;;;;;;;;;;;20.10;1.00;;;;;;4918682;29;20346;-55
2023/10/04 03:26:01;;;;;;;;;;;20.10;1.00;;;;;;4926642;29;19954;-52
2023/10/04 03:28:33;;;;;;;;;;;20.10;1.00;;;;;;4918201;29;19926;-53
2023/10/04 03:31:10;;;;;;;;;;;20.10;1.00;;;;;;4917990;29;19930;-52
2023/10/04 03:33:37;;;;;;;;;;;20.10;1.00;;;;;;4918426;29;19926;-51
2023/10/04 03:36:04;;;;;;;;;;;20.10;1.00;;;;;;4934575;29;20381;-53
2023/10/04 03:41:24;;;;;;;;;;;20.10;1.00;;;;;;4858376;29;20295;-56
2023/10/04 03:43:57;;;;;;;;;;;20.10;1.00;;;;;;4863985;29;20061;-53
2023/10/04 03:46:24;;;;;;;;;;;20.10;1.00;;;;;;4843401;29;19974;-51
2023/10/04 03:48:56;;;;;;;;;;;20.00;1.00;;;;;;4843443;29;19932;-50
2023/10/04 03:51:23;;;;;;;;;;;20.00;1.00;;;;;;4866123;29;20387;-50
2023/10/04 03:53:54;;;;;;;;;;;20.00;1.00;;;;;;4843456;29;19929;-51
2023/10/04 03:56:25;;;;;;;;;;;20.00;1.00;;;;;;4858580;29;19934;-52
2023/10/04 03:58:54;;;;;;;;;;;20.10;1.00;;;;;;4843346;29;19928;-51
2023/10/04 04:01:20;;;;;;;;;;;20.00;1.00;;;;;;4858424;29;19928;-53
2023/10/04 04:03:49;;;;;;;;;;;20.00;1.00;;;;;;4860014;29;19988;-55
2023/10/04 04:06:17;;;;;;;;;;;20.00;1.00;;;;;;4859836;29;20394;-53
2023/10/04 04:08:46;;;;;;;;;;;20.00;1.00;;;;;;4843299;29;19928;-54
2023/10/04 04:11:14;;;;;;;;;;;20.00;1.00;;;;;;5114681;23;21072;-54
2023/10/04 04:13:41;;;;;;;;;;;20.00;1.00;;;;;;4898995;29;19926;-52
2023/10/04 04:16:10;;;;;;;;;;;20.00;1.00;;;;;;4898953;29;19949;-52
2023/10/04 04:18:39;;;;;;;;;;;20.00;1.00;;;;;;4898828;29;20304;-52
2023/10/04 04:21:06;;;;;;;;;;;20.00;1.00;;;;;;4915540;29;20369;-51
2023/10/04 04:23:35;;;;;;;;;;;20.00;1.00;;;;;;4898711;29;19927;-50
2023/10/04 04:26:05;;;;;;;;;;;20.00;1.00;;;;;;4898813;29;19935;-54
2023/10/04 04:28:35;;;;;;;;;;;20.00;1.00;;;;;;4898661;29;19934;-53
2023/10/04 04:31:09;;;;;;;;;;;20.00;1.00;;;;;;4898535;29;19934;-50
2023/10/04 04:33:36;;;;;;;;;;;20.00;1.00;;;;;;4898614;29;19950;-53
2023/10/04 04:36:17;;;;;;;;;;;20.00;1.00;;;;;;4905445;29;20005;-52
2023/10/04 04:38:47;;;;;;;;;;;20.00;1.00;;;;;;4898679;29;20301;-50
2023/10/04 04:41:16;;;;;;;;;;;20.00;1.00;;;;;;4898548;29;19954;-51
2023/10/04 04:43:43;;;;;;;;;;;20.00;1.00;;;;;;5028715;23;20011;-50
2023/10/04 04:46:14;;;;;;;;;;;20.00;1.00;;;;;;4936705;28;19926;-52
2023/10/04 04:48:41;;;;;;;;;;;20.00;1.00;;;;;;4939996;29;19930;-53
2023/10/04 04:51:12;;;;;;;;;;;20.00;1.00;;;;;;4933049;29;19982;-51
2023/10/04 04:53:43;;;;;;;;;;;20.00;1.00;;;;;;4921108;29;19934;-54
2023/10/04 04:56:15;;;;;;;;;;;20.00;1.00;;;;;;4921120;29;19934;-51
2023/10/04 04:58:49;;;;;;;;;;;20.00;1.00;;;;;;4913488;29;19926;-53
2023/10/04 05:01:16;;;;;;;;;;;20.00;1.00;;;;;;4920820;29;19933;-51
2023/10/04 05:03:45;;;;;;;;;;;20.00;1.00;;;;;;4921056;29;19927;-53
2023/10/04 05:06:25;;;;;;;;;;;20.00;1.00;;;;;;4938034;29;19926;-54
2023/10/04 05:08:54;;;;;;;;;;;20.00;1.00;;;;;;4938573;29;19958;-55
2023/10/04 05:11:21;;;;;;;;;;;19.90;1.00;;;;;;4938306;29;19985;-56
2023/10/04 05:13:48;;;;;;;;;;;19.90;1.00;;;;;;4957885;29;20400;-56
2023/10/04 05:16:15;;;;;;;;;;;19.90;1.00;;;;;;4957549;29;20347;-55
2023/10/04 05:18:43;;;;;;;;;;;19.90;1.00;;;;;;4957327;29;20028;-56
2023/10/04 05:21:14;;;;;;;;;;;19.90;1.00;;;;;;4942436;29;19927;-55
2023/10/04 05:23:41;;;;;;;;;;;19.90;1.00;;;;;;4940426;29;20360;-55
2023/10/04 05:26:08;;;;;;;;;;;19.90;1.00;;;;;;4956898;29;20389;-55
2023/10/04 05:28:35;;;;;;;;;;;19.90;1.00;;;;;;4956480;29;19930;-57
2023/10/04 05:31:03;;;;;;;;;;;19.90;1.00;;;;;;4956357;29;19926;-54
2023/10/04 05:33:30;;;;;;;;;;;19.90;1.00;;;;;;4955454;29;19926;-55
2023/10/04 05:36:00;;;;;;;;;;;19.90;1.00;;;;;;4942334;29;19927;-55
2023/10/04 05:38:28;;;;;;;;;;;19.90;1.00;;;;;;4956363;29;20017;-56
2023/10/04 05:40:55;;;;;;;;;;;19.90;1.00;;;;;;4943838;29;19934;-54
2023/10/04 05:43:22;;;;;;;;;;;19.90;1.00;;;;;;4937427;29;20048;-51
2023/10/04 05:45:49;;;;;;;;;;;19.90;1.00;;;;;;4966479;23;20399;-54
2023/10/04 05:48:19;;;;;;;;;;;19.90;1.00;;;;;;4956465;29;20403;-57
2023/10/04 05:50:50;;;;;;;;;;;19.90;1.00;;;;;;4954159;29;19930;-56
2023/10/04 05:53:22;;;;;;;;;;;19.90;1.00;;;;;;4956425;29;19930;-54
2023/10/04 05:55:49;;;;;;;;;;;19.90;1.00;;;;;;4939661;29;20303;-55
2023/10/04 05:58:17;;;;;;;;;;;19.90;1.00;;;;;;4955568;28;20021;-50
2023/10/04 06:00:51;;;;;;;;;;;19.90;1.00;;;;;;4955594;29;19941;-55
2023/10/04 06:03:20;;;;;;;;;;;19.90;1.00;;;;;;4948657;29;19927;-53
2023/10/04 06:05:47;;;;;;;;;;;19.90;1.00;;;;;;4955491;29;19931;-56
2023/10/04 06:08:21;;;;;;;;;;;19.90;1.00;;;;;;4949536;29;20269;-56
2023/10/04 06:10:53;;;;;;;;;;;19.90;1.00;;;;;;4936474;29;19973;-52
2023/10/04 06:13:22;;;;;;;;;;;19.90;1.00;;;;;;4936766;29;20413;-50
2023/10/04 06:18:41;;;;;;;;;;;19.80;1.00;;;;;;4935776;23;19982;-54
2023/10/04 06:21:09;;;;;;;;;;;19.80;1.00;;;;;;4924942;29;19935;-53
2023/10/04 06:23:36;;;;;;;;;;;19.80;1.00;;;;;;4925349;29;19991;-53
2023/10/04 06:26:03;;;;;;;;;;;19.80;1.00;;;;;;4917754;29;19934;-53
2023/10/04 06:28:30;;;;;;;;;;;19.80;1.00;;;;;;4917933;29;19931;-55
2023/10/04 06:30:56;;;;;;;;;;;19.80;1.00;;;;;;4928311;29;19930;-53
2023/10/04 06:33:24;;;;;;;;;;;19.80;1.00;;;;;;4921119;29;19927;-55
2023/10/04 06:35:51;;;;;;;;;;;19.80;1.00;;;;;;4928098;29;19937;-56
2023/10/04 06:38:18;;;;;;;;;;;19.80;1.00;;;;;;4929727;29;19927;-53
2023/10/04 06:40:45;;;;;;;;;;;19.80;1.00;;;;;;4917246;29;20285;-55
2023/10/04 06:43:14;;;;;;;;;;;19.80;1.00;;;;;;4923475;29;19927;-56
2023/10/04 06:45:41;;;;;;;;;;;19.80;1.00;;;;;;4918179;29;19927;-54
2023/10/04 06:50:57;;;;;;;;;;;19.80;1.00;;;;;;4914994;29;19927;-51
2023/10/04 06:53:24;;;;;;;;;;;19.80;1.00;;;;;;4917088;29;19926;-55
2023/10/04 06:55:50;;;;;;;;;;;19.80;1.00;;;;;;4935580;29;19933;-55
2023/10/04 06:58:17;;;;;;;;;;;19.80;1.00;;;;;;4918859;29;20290;-53
2023/10/04 07:00:44;;;;;;;;;;;19.80;1.00;;;;;;4925622;29;20360;-55
2023/10/04 07:03:11;;;;;;;;;;;19.80;1.00;;;;;;4916896;29;19934;-52
2023/10/04 07:05:38;;;;;;;;;;;19.80;1.00;;;;;;4899678;29;19937;-54
2023/10/04 07:08:06;;;;;;;;;;;19.80;1.00;;;;;;4916725;29;20386;-54
2023/10/04 07:10:33;;;;;;;;;;;19.80;1.00;;;;;;4931525;29;19927;-55
2023/10/04 07:13:02;;;;;;;;;;;19.80;1.00;;;;;;4935699;29;19933;-56
2023/10/04 07:15:35;;;;;;;;;;;19.80;1.00;;;;;;4935603;29;19930;-51
2023/10/04 07:18:06;;;;;;;;;;;19.80;1.00;;;;;;4922000;29;20021;-54
2023/10/04 07:23:30;;;;;;;;;;;19.80;1.00;;;;;;5085999;23;19926;-51
2023/10/04 07:26:09;;;;;;;;;;;19.80;1.00;;;;;;4948048;29;19927;-51
2023/10/04 07:28:38;;;;;;;;;;;19.80;1.00;;;;;;4938112;29;20433;-53
2023/10/04 07:31:05;;;;;;;;;;;19.80;1.00;;;;;;4934862;29;19927;-55
2023/10/04 07:33:32;;;;;;;;;;;19.80;1.00;;;;;;4935273;29;19927;-53
2023/10/04 07:35:58;;;;;;;;;;;19.80;1.00;;;;;;4918364;29;20429;-53
2023/10/04 07:38:25;;;;;;;;;;;19.80;1.00;;;;;;4935320;29;20373;-56
2023/10/04 07:40:52;;;;;;;;;;;19.80;1.00;;;;;;4934680;29;20443;-55
2023/10/04 07:43:19;;;;;;;;;;;19.80;1.00;;;;;;4935284;29;19965;-53
2023/10/04 07:45:45;;;;;;;;;;;19.80;1.00;;;;;;4935010;29;19927;-55
2023/10/04 07:48:15;;;;;;;;;;;19.80;1.00;;;;;;4935107;29;19985;-55
2023/10/04 07:50:42;;;;;;;;;;;19.80;1.00;;;;;;4934870;29;20329;-52
2023/10/04 07:56:05;;;;;;;;;;;19.80;1.00;;;;;;4936223;23;19971;-55
2023/10/04 07:58:32;;;;;;;;;;;19.80;1.00;;;;;;4934968;29;19927;-54
2023/10/04 08:00:59;;;;;;;;;;;19.80;1.00;;;;;;4934535;29;19998;-55
2023/10/04 08:03:26;;;;;;;;;;;19.80;1.00;;;;;;4934958;29;19990;-53
2023/10/04 08:05:54;;;;;;;;;;;19.80;1.00;;;;;;4934608;29;20033;-52
2023/10/04 08:08:21;;;;;;;;;;;19.80;1.00;;;;;;4934969;29;19937;-52
2023/10/04 08:10:49;;;;;;;;;;;19.80;1.00;;;;;;4934515;29;19949;-50
2023/10/04 08:13:16;;;;;;;;;;;19.80;1.00;;;;;;4935086;29;19926;-52
2023/10/04 08:15:43;;;;;;;;;;;19.80;1.00;;;;;;4934742;29;20013;-53
2023/10/04 08:18:13;;;;;;;;;;;19.80;1.00;;;;;;4934890;29;19934;-55
2023/10/04 08:20:42;;;;;;;;;;;19.80;1.00;;;;;;4934163;29;20285;-55
2023/10/04 08:23:09;;;;;;;;;;;19.80;1.00;;;;;;4937973;29;19927;-52
2023/10/04 08:25:35;;;;;;;;;;;19.80;1.00;;;;;;4978691;23;19927;-54
2023/10/04 08:28:05;;;;;;;;;;;19.80;1.00;;;;;;4919720;29;20022;-50
2023/10/04 08:30:32;;;;;;;;;;;19.80;1.00;;;;;;4919317;29;20464;-53
2023/10/04 08:32:59;;;;;;;;;;;19.80;1.00;;;;;;4919454;29;19931;-55
2023/10/04 08:35:33;;;;;;;;;;;19.80;1.00;;;;;;4933909;29;19927;-50
2023/10/04 08:38:03;;;;;;;;;;;19.80;1.00;;;;;;4938374;29;19931;-50
2023/10/04 08:40:31;;;;;;;;;;;19.80;1.00;;;;;;4938173;29;20405;-51
2023/10/04 08:42:58;;;;;;;;;;;19.80;1.00;;;;;;4927913;29;19955;-52
2023/10/04 08:45:29;;;;;;;;;;;19.80;1.00;;;;;;4919566;29;19982;-53
2023/10/04 08:47:57;;;;;;;;;;;19.80;1.00;;;;;;4919353;29;19965;-56
2023/10/04 08:50:26;;;;;;;;;;;19.80;1.00;;;;;;4918919;29;19927;-51
2023/10/04 08:52:56;;;;;;;;;;;19.80;1.00;;;;;;4919132;29;19934;-54
2023/10/04 08:55:25;;;;;;;;;;;19.80;1.00;;;;;;4925184;29;20305;-50
2023/10/04 08:57:53;;;;;;;;;;;19.80;1.00;;;;;;4937990;29;19934;-56
2023/10/04 09:00:23;;;;;;;;;;;19.90;1.00;;;;;;4937631;29;20306;-53
2023/10/04 09:02:57;;;;;;;;;;;19.80;1.00;;;;;;4937895;29;20025;-51
2023/10/04 09:05:27;;;;;;;;;;;19.80;1.00;;;;;;4938020;29;20292;-54
2023/10/04 09:07:55;;;;;;;;;;;19.80;1.00;;;;;;4937799;29;19930;-52
2023/10/04 09:10:23;;;;;;;;;;;19.80;1.00;;;;;;4937609;29;19937;-56
2023/10/04 09:12:50;;;;;;;;;;;19.90;1.00;;;;;;4920818;29;19931;-52
2023/10/04 09:15:25;;;;;;;;;;;19.80;1.00;;;;;;4918712;29;19927;-54
2023/10/04 09:17:57;;;;;;;;;;;19.90;1.00;;;;;;4918697;29;19927;-52
2023/10/04 09:20:35;;;;;;;;;;;19.90;1.00;;;;;;4918489;29;20408;-53
2023/10/04 09:23:14;;;;;;;;;;;19.90;1.00;;;;;;4918582;29;20586;-51
2023/10/04 09:28:37;;;;;;;;;;;19.90;1.00;;;;;;4995611;23;19973;-55
2023/10/04 09:31:13;;;;;;;;;;;19.90;1.00;;;;;;4956221;29;20336;-51
2023/10/04 09:33:40;;;;;;;;;;;19.90;1.00;;;;;;4955558;28;19926;-55
2023/10/04 09:36:10;;;;;;;;;;;19.90;1.00;;;;;;4957463;29;19926;-56
2023/10/04 09:38:39;;;;;;;;;;;19.90;1.00;;;;;;4962296;29;19926;-57
2023/10/04 09:41:09;;;;;;;;;;;19.90;1.00;;;;;;4961764;29;20445;-58
2023/10/04 09:43:37;;;;;;;;;;;20.00;1.00;;;;;;4958057;29;19934;-51
2023/10/04 09:46:09;;;;;;;;;;;20.00;1.00;;;;;;4956226;29;20395;-51
2023/10/04 09:48:44;;;;;;;;;;;20.00;1.00;;;;;;4956575;29;19930;-52
2023/10/04 09:51:12;;;;;;;;;;;20.00;1.00;;;;;;4948632;29;20399;-52
2023/10/04 09:53:40;;;;;;;;;;;20.00;1.00;;;;;;4956331;29;19993;-56
2023/10/04 09:56:08;;;;;;;;;;;20.00;1.00;;;;;;4956158;29;19926;-54
2023/10/04 09:58:39;;;;;;;;;;;20.00;1.00;;;;;;5257322;23;20015;-54
2023/10/04 10:01:11;;;;;;;;;;;20.00;1.00;;;;;;4901426;29;20363;-51
2023/10/04 10:03:55;;;;;;;;;;;20.00;1.00;;;;;;4917979;29;20407;-52
2023/10/04 10:06:23;;;;;;;;;;;20.00;1.00;;;;;;4897511;29;19975;-50
2023/10/04 10:08:56;;;;;;;;;;;20.00;1.00;;;;;;4917572;29;20026;-55
2023/10/04 10:11:23;;;;;;;;;;;20.00;1.00;;;;;;4917643;29;20393;-51
2023/10/04 10:13:50;;;;;;;;;;;20.00;1.00;;;;;;4917595;29;19935;-52
2023/10/04 10:16:19;;;;;;;;;;;20.00;1.00;;;;;;4917662;29;19983;-52
2023/10/04 10:18:47;;;;;;;;;;;20.00;1.00;;;;;;4910155;29;20331;-52
2023/10/04 10:21:14;;;;;;;;;;;20.00;1.00;;;;;;4909784;29;20405;-53
2023/10/04 10:24:03;;;;;;;;;;;20.10;1.00;;;;;;4917506;29;19927;-52
2023/10/04 10:26:33;;;;;;;;;;;20.10;1.00;;;;;;4893244;29;20015;-53
2023/10/04 10:29:04;;;;;;;;;;;20.10;1.00;;;;;;4915531;29;20522;-55
2023/10/04 10:31:31;;;;;;;;;;;20.10;1.00;;;;;;5157997;23;19948;-54
2023/10/04 10:34:02;;;;;;;;;;;20.10;1.00;;;;;;4936273;29;19926;-56
2023/10/04 10:36:33;;;;;;;;;;;20.10;1.00;;;;;;4936351;29;20341;-54
2023/10/04 10:39:17;;;;;;;;;;;20.10;1.00;;;;;;4935885;29;19926;-57
2023/10/04 10:41:49;;;;;;;;;;;20.10;1.00;;;;;;4936120;29;19927;-54
2023/10/04 10:44:19;;;;;;;;;;;20.10;1.00;;;;;;4920564;29;19966;-54
2023/10/04 10:47:01;;;;;;;;;;;20.10;1.00;;;;;;4936176;29;19934;-52
2023/10/04 10:49:39;;;;;;;;;;;20.10;1.00;;;;;;4906660;29;19927;-53
2023/10/04 10:52:09;;;;;;;;;;;20.10;1.00;;;;;;4935717;29;19927;-57
2023/10/04 10:54:36;;;;;;;;;;;20.20;1.00;;;;;;4935958;29;20393;-51
2023/10/04 10:57:05;;;;;;;;;;;20.20;1.00;;;;;;4935813;29;19981;-51
2023/10/04 10:59:35;;;;;;;;;;;20.20;1.00;;;;;;4935692;29;20400;-51
2023/10/04 11:02:02;;;;;;;;;;;20.20;1.00;;;;;;4935363;29;19926;-54
2023/10/04 11:04:29;;;;;;;;;;;20.20;1.00;;;;;;4954397;23;20037;-52
2023/10/04 11:06:55;;;;;;;;;;;20.20;1.00;;;;;;4954866;29;19933;-53
2023/10/04 11:09:22;;;;;;;;;;;20.20;1.00;;;;;;4950587;28;19973;-54
2023/10/04 11:12:10;;;;;;;;;;;20.20;1.00;;;;;;4935538;29;19927;-53
2023/10/04 11:14:36;;;;;;;;;;;20.20;1.00;;;;;;4935551;29;20034;-52
2023/10/04 11:17:04;;;;;;;;;;;20.20;1.00;;;;;;4935509;29;19966;-54
2023/10/04 11:19:31;;;;;;;;;;;20.20;1.00;;;;;;4935503;29;20427;-55
2023/10/04 11:21:59;;;;;;;;;;;20.20;1.00;;;;;;4935100;29;19946;-54
2023/10/04 11:24:26;;;;;;;;;;;20.20;1.00;;;;;;4935944;29;19931;-53
2023/10/04 11:26:59;;;;;;;;;;;20.20;1.00;;;;;;4943208;29;19934;-54
2023/10/04 11:29:27;;;;;;;;;;;20.20;1.00;;;;;;4954391;28;20344;-51
2023/10/04 11:31:55;;;;;;;;;;;20.20;1.00;;;;;;4954280;29;20292;-53
2023/10/04 11:34:22;;;;;;;;;;;20.20;1.00;;;;;;4930614;29;19937;-58
2023/10/04 11:36:50;;;;;;;;;;;20.20;1.00;;;;;;4954586;29;19933;-56
2023/10/04 11:39:20;;;;;;;;;;;20.20;1.00;;;;;;4953951;28;19948;-52
2023/10/04 11:41:47;;;;;;;;;;;20.20;1.00;;;;;;4947303;29;19926;-53
2023/10/04 11:44:14;;;;;;;;;;;20.20;1.00;;;;;;4935110;29;19927;-54
2023/10/04 11:46:53;;;;;;;;;;;20.30;1.00;;;;;;4918261;29;19962;-52
2023/10/04 11:49:21;;;;;;;;;;;20.30;1.00;;;;;;4927073;29;19926;-54
2023/10/04 11:51:50;;;;;;;;;;;20.30;1.00;;;;;;4934820;29;19934;-54
2023/10/04 11:54:18;;;;;;;;;;;20.30;1.00;;;;;;4934921;29;19934;-52
2023/10/04 11:56:45;;;;;;;;;;;20.30;1.00;;;;;;4934302;29;20050;-53
2023/10/04 11:59:13;;;;;;;;;;;20.30;1.00;;;;;;4934673;29;19949;-53
2023/10/04 12:01:47;;;;;;;;;;;20.30;1.00;;;;;;4934779;29;19926;-54
2023/10/04 12:04:14;;;;;;;;;;;20.30;1.00;;;;;;4934842;29;19993;-51
2023/10/04 12:06:42;;;;;;;;;;;20.30;1.00;;;;;;4997911;23;20009;-51
2023/10/04 12:09:09;;;;;;;;;;;20.30;1.00;;;;;;4934731;29;19927;-56
2023/10/04 12:11:36;;;;;;;;;;;20.30;1.00;;;;;;4934564;29;19926;-51
2023/10/04 12:14:04;;;;;;;;;;;20.30;1.00;;;;;;4934528;29;19927;-54
2023/10/04 12:16:33;;;;;;;;;;;20.30;1.00;;;;;;4934744;29;19927;-51
2023/10/04 12:19:00;;;;;;;;;;;20.30;1.00;;;;;;4934488;29;19927;-53
2023/10/04 12:21:28;;;;;;;;;;;20.30;1.00;;;;;;4934553;29;19970;-54
2023/10/04 12:23:54;;;;;;;;;;;20.30;1.00;;;;;;4934811;29;19927;-51
2023/10/04 12:26:22;;;;;;;;;;;20.30;1.00;;;;;;4934478;29;20393;-55
2023/10/04 12:28:51;;;;;;;;;;;20.30;1.00;;;;;;4934630;29;19933;-52
2023/10/04 12:31:17;;;;;;;;;;;20.30;1.00;;;;;;4934745;29;20345;-52
2023/10/04 12:33:46;;;;;;;;;;;20.30;1.00;;;;;;4934584;29;20472;-52
2023/10/04 12:36:13;;;;;;;;;;;20.30;1.00;;;;;;4934790;29;20341;-54
2023/10/04 12:38:40;;;;;;;;;;;20.30;1.00;;;;;;4934547;29;20057;-55
2023/10/04 12:41:06;;;;;;;;;;;20.30;1.00;;;;;;4934039;29;19927;-54
2023/10/04 12:43:33;;;;;;;;;;;20.30;1.00;;;;;;4934538;29;19926;-55
2023/10/04 12:46:01;;;;;;;;;;;20.30;1.00;;;;;;4934844;29;19927;-53
2023/10/04 12:48:28;;;;;;;;;;;20.30;1.00;;;;;;4934493;29;19927;-52
2023/10/04 12:50:55;;;;;;;;;;;20.30;1.00;;;;;;4917358;29;20389;-53
2023/10/04 12:53:22;;;;;;;;;;;20.30;1.00;;;;;;4934222;29;19926;-56
2023/10/04 12:55:51;;;;;;;;;;;20.30;1.00;;;;;;4934291;29;20017;-53
2023/10/04 12:58:20;;;;;;;;;;;20.30;1.00;;;;;;4934271;29;19982;-52
2023/10/04 13:00:49;;;;;;;;;;;20.30;1.00;;;;;;4934200;29;19934;-54
2023/10/04 13:03:16;;;;;;;;;;;20.30;1.00;;;;;;4934277;29;19978;-52
2023/10/04 13:08:41;;;;;;;;;;;20.30;1.00;;;;;;4937473;23;19974;-54
2023/10/04 13:11:11;;;;;;;;;;;20.30;1.00;;;;;;4937437;29;19927;-55
2023/10/04 13:13:39;;;;;;;;;;;20.30;1.00;;;;;;4938266;29;19951;-53
2023/10/04 13:16:07;;;;;;;;;;;20.30;1.00;;;;;;4937479;29;19962;-56
2023/10/04 13:18:34;;;;;;;;;;;20.30;1.00;;;;;;4937852;29;19966;-55
2023/10/04 13:21:02;;;;;;;;;;;20.40;1.00;;;;;;4937521;29;19934;-55
2023/10/04 13:23:31;;;;;;;;;;;20.30;1.00;;;;;;4922128;29;19934;-57
2023/10/04 13:25:58;;;;;;;;;;;20.30;1.00;;;;;;4937690;29;19927;-51
2023/10/04 13:28:27;;;;;;;;;;;20.40;1.00;;;;;;4937521;29;20531;-53
2023/10/04 13:30:57;;;;;;;;;;;20.40;1.00;;;;;;4937324;29;20088;-54
2023/10/04 13:33:25;;;;;;;;;;;20.40;1.00;;;;;;4937496;29;19934;-55
2023/10/04 13:35:52;;;;;;;;;;;20.40;1.00;;;;;;4937518;29;19927;-56
2023/10/04 13:41:16;;;;;;;;;;;20.40;1.00;;;;;;4910340;26;20304;-54
2023/10/04 13:43:43;;;;;;;;;;;20.40;1.00;;;;;;4918444;29;19934;-58
2023/10/04 13:46:09;;;;;;;;;;;20.40;1.00;;;;;;4918099;29;19931;-54
2023/10/04 13:48:40;;;;;;;;;;;20.40;1.00;;;;;;4918422;29;20341;-56
2023/10/04 13:51:11;;;;;;;;;;;20.40;1.00;;;;;;4899074;29;19928;-53
2023/10/04 13:53:38;;;;;;;;;;;20.40;1.00;;;;;;4899497;29;20327;-57
2023/10/04 13:56:05;;;;;;;;;;;20.40;1.00;;;;;;4899438;29;19934;-58
2023/10/04 13:58:32;;;;;;;;;;;20.40;1.00;;;;;;4891836;29;20286;-56
2023/10/04 14:01:03;;;;;;;;;;;20.40;1.00;;;;;;4906999;29;20437;-57
2023/10/04 14:03:33;;;;;;;;;;;20.40;1.00;;;;;;4899088;29;19935;-57
2023/10/04 14:06:08;;;;;;;;;;;20.40;1.00;;;;;;4899088;29;19931;-57
2023/10/04 14:08:35;;;;;;;;;;;20.40;1.00;;;;;;4899131;29;19934;-57
2023/10/04 14:11:04;;;;;;;;;;;20.40;1.00;;;;;;4906130;29;19956;-55
2023/10/04 14:13:33;;;;;;;;;;;20.40;1.00;;;;;;4909615;29;20401;-57
2023/10/04 14:16:02;;;;;;;;;;;20.40;1.00;;;;;;4911030;29;19982;-56
2023/10/04 14:18:29;;;;;;;;;;;20.40;1.00;;;;;;4906579;29;19975;-57
2023/10/04 14:20:57;;;;;;;;;;;20.40;1.00;;;;;;4898105;29;19963;-53
2023/10/04 14:23:25;;;;;;;;;;;20.40;1.00;;;;;;4898747;29;19928;-58
2023/10/04 14:25:56;;;;;;;;;;;20.40;1.00;;;;;;4898644;29;20046;-55
2023/10/04 14:28:25;;;;;;;;;;;20.40;1.00;;;;;;4906376;29;20393;-56
2023/10/04 14:30:51;;;;;;;;;;;20.40;1.00;;;;;;4904079;29;19938;-54
2023/10/04 14:33:19;;;;;;;;;;;20.40;1.00;;;;;;4916179;29;19927;-53
2023/10/04 14:35:47;;;;;;;;;;;20.40;1.00;;;;;;4911244;29;19927;-54
2023/10/04 14:38:15;;;;;;;;;;;20.50;1.00;;;;;;4901342;29;20026;-54
2023/10/04 14:40:45;;;;;;;;;;;20.50;1.00;;;;;;5016527;23;19926;-56
2023/10/04 14:43:28;;;;;;;;;;;20.40;1.00;;;;;;4982443;28;20323;-53
2023/10/04 14:45:55;;;;;;;;;;;20.50;1.00;;;;;;4988356;28;20307;-55
2023/10/04 14:48:22;;;;;;;;;;;20.40;1.00;;;;;;4985848;28;19926;-57
2023/10/04 14:50:52;;;;;;;;;;;20.50;1.00;;;;;;4993602;28;19965;-54
2023/10/04 14:53:22;;;;;;;;;;;20.50;1.00;;;;;;4993675;28;19969;-52
2023/10/04 14:55:49;;;;;;;;;;;20.50;1.00;;;;;;4993741;28;19925;-57
2023/10/04 14:58:17;;;;;;;;;;;20.40;1.00;;;;;;4993677;28;19945;-54
2023/10/04 15:00:50;;;;;;;;;;;20.50;1.00;;;;;;4993241;28;19926;-56
2023/10/04 15:03:16;;;;;;;;;;;20.50;1.00;;;;;;4993639;28;20339;-57
2023/10/04 15:05:45;;;;;;;;;;;20.50;1.00;;;;;;4993666;28;19933;-57
2023/10/04 15:08:12;;;;;;;;;;;20.50;1.00;;;;;;4993921;28;19929;-54
2023/10/04 15:13:35;;;;;;;;;;;20.50;1.00;;;;;;5059993;23;20312;-56
2023/10/04 15:16:04;;;;;;;;;;;20.50;1.00;;;;;;4938737;29;19933;-52